createdAt,value
2022-12-01T00:01:11.342Z,95.10
2022-12-01T00:03:38.970Z,95.30
2022-12-01T00:06:07.847Z,95.30
2022-12-01T00:08:35.342Z,95.30
2022-12-01T00:11:10.594Z,95.20
2022-12-01T00:13:38.361Z,95.40
2022-12-01T00:16:13.576Z,95.50
2022-12-01T00:18:42.495Z,95.60
2022-12-01T00:21:16.994Z,96.00
2022-12-01T00:23:45.126Z,95.80
2022-12-01T00:26:13.430Z,95.90
2022-12-01T00:28:41.022Z,96.10
2022-12-01T00:31:09.116Z,96.10
2022-12-01T00:33:36.630Z,96.10
2022-12-01T00:36:04.814Z,96.10
2022-12-01T00:38:33.050Z,95.90
2022-12-01T00:41:01.378Z,96.00
2022-12-01T00:43:28.962Z,96.30
2022-12-01T00:45:58.146Z,96.30
2022-12-01T00:48:26.077Z,96.30
2022-12-01T00:50:54.250Z,96.20
2022-12-01T00:53:22.147Z,96.00
2022-12-01T00:55:49.678Z,96.00
2022-12-01T00:58:17.198Z,95.90
2022-12-01T01:00:44.783Z,95.90
2022-12-01T01:03:12.324Z,96.00
2022-12-01T01:05:40.833Z,96.00
2022-12-01T01:08:09.302Z,95.80
2022-12-01T01:10:43.713Z,95.60
2022-12-01T01:13:11.776Z,95.70
2022-12-01T01:15:39.551Z,95.60
2022-12-01T01:18:07.653Z,95.50
2022-12-01T01:20:36.025Z,95.40
2022-12-01T01:23:04.490Z,95.20
2022-12-01T01:25:32.313Z,95.10
2022-12-01T01:28:00.120Z,94.90
2022-12-01T01:30:27.927Z,94.80
2022-12-01T01:32:56.024Z,94.60
2022-12-01T01:35:23.548Z,94.30
2022-12-01T01:37:52.865Z,94.30
2022-12-01T01:40:20.411Z,94.20
2022-12-01T01:42:48.043Z,94.00
2022-12-01T01:45:23.751Z,93.70
2022-12-01T01:47:52.841Z,93.80
2022-12-01T01:50:22.114Z,93.80
2022-12-01T01:52:52.187Z,93.70
2022-12-01T01:55:20.754Z,93.40
2022-12-01T01:57:48.580Z,93.30
2022-12-01T02:00:20.474Z,93.40
2022-12-01T02:02:49.321Z,93.10
2022-12-01T02:05:22.645Z,93.70
2022-12-01T02:07:51.417Z,93.30
2022-12-01T02:10:23.011Z,93.10
2022-12-01T02:13:05.595Z,93.20
2022-12-01T02:15:46.093Z,93.20
2022-12-01T02:18:21.100Z,93.00
2022-12-01T02:21:00.242Z,92.90
2022-12-01T02:23:46.316Z,92.90
2022-12-01T02:26:14.601Z,92.90
2022-12-01T02:28:58.097Z,92.70
2022-12-01T02:31:36.930Z,92.70
2022-12-01T02:34:19.618Z,92.30
2022-12-01T02:36:52.468Z,92.50
2022-12-01T02:39:36.480Z,91.90
2022-12-01T02:42:35.113Z,92.20
2022-12-01T02:45:06.116Z,92.00
2022-12-01T02:47:33.937Z,92.30
2022-12-01T02:50:02.351Z,92.40
2022-12-01T02:55:15.327Z,91.70
2022-12-01T02:57:42.948Z,92.10
2022-12-01T03:00:14.054Z,92.30
2022-12-01T03:02:46.235Z,92.30
2022-12-01T03:05:25.308Z,91.70
2022-12-01T03:08:04.274Z,91.80
2022-12-01T03:10:32.105Z,91.80
2022-12-01T03:13:13.693Z,92.10
2022-12-01T03:15:42.546Z,91.40
2022-12-01T03:18:28.579Z,91.30
2022-12-01T03:21:06.833Z,91.20
2022-12-01T03:23:36.705Z,91.40
2022-12-01T03:26:07.275Z,91.20
2022-12-01T03:28:37.096Z,91.00
2022-12-01T03:31:08.273Z,90.10
2022-12-01T03:33:39.657Z,90.50
2022-12-01T03:36:07.252Z,90.70
2022-12-01T03:38:36.559Z,90.80
2022-12-01T03:41:07.401Z,90.20
2022-12-01T03:43:37.942Z,90.10
2022-12-01T03:46:11.586Z,91.20
2022-12-01T03:48:40.031Z,90.30
2022-12-01T03:51:07.503Z,91.10
2022-12-01T03:53:40.652Z,89.40
2022-12-01T03:56:09.316Z,90.30
2022-12-01T03:58:43.344Z,90.30
2022-12-01T04:01:11.755Z,90.30
2022-12-01T04:03:39.379Z,89.70
2022-12-01T04:06:07.478Z,90.10
2022-12-01T04:08:37.514Z,89.60
2022-12-01T04:11:29.458Z,90.00
2022-12-01T04:14:00.820Z,90.00
2022-12-01T04:16:29.239Z,89.90
2022-12-01T04:18:56.885Z,90.10
2022-12-01T04:21:24.650Z,88.00
2022-12-01T04:24:01.111Z,89.60
2022-12-01T04:26:29.663Z,88.90
2022-12-01T04:28:57.204Z,90.10
2022-12-01T04:31:24.808Z,89.30
2022-12-01T04:33:52.698Z,90.00
2022-12-01T04:36:21.102Z,90.00
2022-12-01T04:38:50.457Z,89.30
2022-12-01T04:41:18.243Z,89.30
2022-12-01T04:43:45.884Z,89.70
2022-12-01T04:46:14.340Z,89.40
2022-12-01T04:48:41.970Z,89.70
2022-12-01T04:51:10.569Z,88.60
2022-12-01T04:53:38.243Z,87.10
2022-12-01T04:56:06.747Z,86.00
2022-12-01T04:58:34.525Z,85.10
2022-12-01T05:01:06.366Z,85.40
2022-12-01T05:03:37.507Z,86.80
2022-12-01T05:06:06.887Z,85.50
2022-12-01T05:08:34.600Z,85.90
2022-12-01T05:11:02.430Z,84.20
2022-12-01T05:13:30.251Z,86.30
2022-12-01T05:16:07.299Z,87.80
2022-12-01T05:18:35.150Z,88.40
2022-12-01T05:21:05.106Z,86.60
2022-12-01T05:23:34.066Z,87.40
2022-12-01T05:26:02.055Z,88.40
2022-12-01T05:28:29.614Z,87.00
2022-12-01T05:30:57.424Z,87.10
2022-12-01T05:33:25.475Z,85.30
2022-12-01T05:35:55.985Z,86.10
2022-12-01T05:38:23.647Z,86.30
2022-12-01T05:40:53.487Z,87.20
2022-12-01T05:43:27.132Z,86.40
2022-12-01T05:45:57.527Z,86.20
2022-12-01T05:48:25.534Z,85.90
2022-12-01T05:50:53.079Z,85.50
2022-12-01T05:53:20.982Z,84.90
2022-12-01T05:55:52.526Z,83.70
2022-12-01T05:58:20.107Z,83.90
2022-12-01T06:00:47.623Z,84.40
2022-12-01T06:03:15.113Z,82.50
2022-12-01T06:05:42.715Z,85.70
2022-12-01T06:08:10.279Z,86.40
2022-12-01T06:10:38.547Z,84.90
2022-12-01T06:13:06.058Z,86.10
2022-12-01T06:15:33.561Z,87.30
2022-12-01T06:18:01.130Z,86.90
2022-12-01T06:20:28.700Z,85.60
2022-12-01T06:22:56.333Z,85.60
2022-12-01T06:25:23.842Z,86.00
2022-12-01T06:27:55.780Z,85.20
2022-12-01T06:30:23.383Z,86.00
2022-12-01T06:32:50.901Z,86.80
2022-12-01T06:35:18.521Z,86.80
2022-12-01T06:37:46.465Z,84.60
2022-12-01T06:40:14.150Z,85.30
2022-12-01T06:42:41.764Z,85.90
2022-12-01T06:45:11.798Z,84.80
2022-12-01T06:47:39.400Z,86.00
2022-12-01T06:50:10.845Z,85.60
2022-12-01T06:52:38.598Z,86.00
2022-12-01T06:55:06.713Z,83.70
2022-12-01T06:57:43.787Z,81.20
2022-12-01T07:00:13.088Z,80.80
2022-12-01T07:02:41.549Z,83.40
2022-12-01T07:05:09.354Z,84.90
2022-12-01T07:07:38.575Z,80.10
2022-12-01T07:10:07.114Z,82.50
2022-12-01T07:12:36.165Z,84.30
2022-12-01T07:15:05.332Z,84.50
2022-12-01T07:17:34.311Z,82.40
2022-12-01T07:20:02.924Z,82.80
2022-12-01T07:22:32.985Z,83.20
2022-12-01T07:25:00.632Z,82.80
2022-12-01T07:27:34.212Z,83.40
2022-12-01T07:30:01.848Z,83.80
2022-12-01T07:32:30.209Z,83.50
2022-12-01T07:34:57.988Z,84.20
2022-12-01T07:37:25.527Z,84.60
2022-12-01T07:39:53.091Z,83.80
2022-12-01T07:42:20.676Z,83.50
2022-12-01T07:44:48.254Z,82.60
2022-12-01T07:47:15.788Z,84.20
2022-12-01T07:49:43.403Z,81.80
2022-12-01T07:52:15.038Z,82.20
2022-12-01T07:54:42.676Z,81.80
2022-12-01T07:57:10.343Z,81.20
2022-12-01T07:59:37.877Z,81.10
2022-12-01T08:02:06.263Z,81.60
2022-12-01T08:04:33.965Z,81.90
2022-12-01T08:07:01.491Z,80.10
2022-12-01T08:09:29.624Z,81.80
2022-12-01T08:11:57.756Z,81.70
2022-12-01T08:14:26.174Z,81.90
2022-12-01T08:16:53.824Z,82.40
2022-12-01T08:19:21.440Z,82.70
2022-12-01T08:21:49.781Z,81.30
2022-12-01T08:24:17.670Z,80.10
2022-12-01T08:26:45.333Z,81.30
2022-12-01T08:29:17.032Z,80.80
2022-12-01T08:31:47.849Z,82.20
2022-12-01T08:34:15.474Z,81.70
2022-12-01T08:36:43.042Z,83.10
2022-12-01T08:39:13.396Z,81.40
2022-12-01T08:41:41.299Z,80.90
2022-12-01T08:44:10.189Z,79.00
2022-12-01T08:46:38.422Z,78.60
2022-12-01T08:49:06.620Z,78.40
2022-12-01T08:51:37.754Z,77.30
2022-12-01T08:54:06.286Z,78.40
2022-12-01T08:56:40.230Z,78.00
2022-12-01T08:59:08.366Z,78.90
2022-12-01T09:01:52.215Z,77.70
2022-12-01T09:04:25.161Z,78.00
2022-12-01T09:06:54.718Z,78.70
2022-12-01T09:09:24.873Z,80.70
2022-12-01T09:11:55.294Z,80.10
2022-12-01T09:14:23.444Z,79.20
2022-12-01T09:16:52.310Z,77.40
2022-12-01T09:19:24.799Z,76.00
2022-12-01T09:21:52.889Z,76.40
2022-12-01T09:24:20.787Z,77.40
2022-12-01T09:26:48.662Z,76.90
2022-12-01T09:29:17.020Z,76.90
2022-12-01T09:31:44.660Z,77.60
2022-12-01T09:34:14.719Z,77.80
2022-12-01T09:36:42.540Z,77.00
2022-12-01T09:39:13.766Z,77.60
2022-12-01T09:41:44.851Z,77.00
2022-12-01T09:44:28.732Z,76.70
2022-12-01T09:47:11.514Z,76.30
2022-12-01T09:49:59.171Z,77.00
2022-12-01T09:52:27.492Z,77.20
2022-12-01T09:54:56.413Z,77.40
2022-12-01T09:57:35.539Z,78.40
2022-12-01T10:00:06.506Z,77.90
2022-12-01T10:02:41.347Z,78.30
2022-12-01T10:05:21.519Z,78.80
2022-12-01T10:08:12.673Z,79.60
2022-12-01T10:10:45.716Z,80.90
2022-12-01T10:13:17.778Z,80.70
2022-12-01T10:15:54.639Z,80.60
2022-12-01T10:18:45.346Z,80.00
2022-12-01T10:21:13.608Z,79.80
2022-12-01T10:23:47.679Z,80.00
2022-12-01T10:26:19.668Z,80.10
2022-12-01T10:29:03.447Z,80.50
2022-12-01T10:31:42.883Z,80.70
2022-12-01T10:34:24.618Z,81.00
2022-12-01T10:36:52.191Z,81.40
2022-12-01T10:39:24.149Z,82.20
2022-12-01T10:41:52.547Z,81.70
2022-12-01T10:44:21.270Z,82.00
2022-12-01T10:46:55.710Z,82.10
2022-12-01T10:49:36.050Z,82.00
2022-12-01T10:52:03.792Z,82.30
2022-12-01T10:54:35.954Z,82.50
2022-12-01T10:57:04.050Z,82.80
2022-12-01T10:59:34.581Z,82.70
2022-12-01T11:02:03.123Z,83.10
2022-12-01T11:04:45.744Z,83.20
2022-12-01T11:07:37.154Z,83.50
2022-12-01T11:10:24.385Z,83.60
2022-12-01T11:12:55.043Z,84.70
2022-12-01T11:15:24.810Z,84.20
2022-12-01T11:18:19.081Z,84.30
2022-12-01T11:20:46.831Z,84.50
2022-12-01T11:23:26.628Z,84.70
2022-12-01T11:26:02.152Z,84.80
2022-12-01T11:28:30.656Z,85.00
2022-12-01T11:30:59.839Z,84.90
2022-12-01T11:33:29.249Z,85.00
2022-12-01T11:35:56.937Z,85.20
2022-12-01T11:38:29.675Z,85.20
2022-12-01T11:40:58.673Z,85.20
2022-12-01T11:43:28.972Z,85.20
2022-12-01T11:45:57.483Z,85.30
2022-12-01T11:48:26.749Z,85.50
2022-12-01T11:51:15.834Z,85.80
2022-12-01T11:53:43.832Z,85.70
2022-12-01T11:56:17.270Z,85.80
2022-12-01T11:58:46.211Z,85.90
2022-12-01T12:01:52.167Z,86.00
2022-12-01T12:04:22.536Z,85.90
2022-12-01T12:06:50.020Z,86.00
2022-12-01T12:09:23.387Z,86.80
2022-12-01T12:11:50.870Z,86.10
2022-12-01T12:14:41.314Z,86.10
2022-12-01T12:17:12.865Z,86.40
2022-12-01T12:20:10.189Z,86.40
2022-12-01T12:22:50.861Z,86.40
2022-12-01T12:25:21.485Z,86.40
2022-12-01T12:27:52.069Z,86.60
2022-12-01T12:30:25.059Z,86.70
2022-12-01T12:33:02.501Z,86.90
2022-12-01T12:35:39.115Z,86.90
2022-12-01T12:38:10.011Z,87.00
2022-12-01T12:40:37.575Z,87.00
2022-12-01T12:43:14.795Z,87.10
2022-12-01T12:45:57.648Z,87.20
2022-12-01T12:48:38.714Z,87.40
2022-12-01T12:51:19.047Z,87.40
2022-12-01T12:53:54.905Z,87.60
2022-12-01T12:56:24.458Z,87.60
2022-12-01T12:59:00.977Z,87.70
2022-12-01T13:01:32.791Z,87.90
2022-12-01T13:04:16.102Z,88.00
2022-12-01T13:06:49.608Z,88.00
2022-12-01T13:09:23.374Z,88.20
2022-12-01T13:11:58.776Z,88.30
2022-12-01T13:14:37.578Z,88.40
2022-12-01T13:17:20.534Z,88.50
2022-12-01T13:19:48.902Z,88.70
2022-12-01T13:22:17.919Z,88.80
2022-12-01T13:24:45.484Z,89.00
2022-12-01T13:27:19.251Z,88.90
2022-12-01T13:29:51.583Z,89.00
2022-12-01T13:32:45.355Z,89.20
2022-12-01T13:35:25.762Z,89.20
2022-12-01T13:37:53.667Z,89.30
2022-12-01T13:40:21.127Z,89.40
2022-12-01T13:43:10.686Z,89.50
2022-12-01T13:45:39.193Z,89.60
2022-12-01T13:48:25.851Z,89.70
2022-12-01T13:50:53.392Z,89.80
2022-12-01T13:53:23.104Z,89.90
2022-12-01T13:55:53.503Z,90.00
2022-12-01T13:58:42.285Z,90.10
2022-12-01T14:01:35.401Z,90.00
2022-12-01T14:04:03.168Z,90.00
2022-12-01T14:06:46.492Z,90.10
2022-12-01T14:09:32.238Z,90.30
2022-12-01T14:11:59.851Z,90.20
2022-12-01T14:14:28.642Z,90.40
2022-12-01T14:17:02.761Z,90.40
2022-12-01T14:19:31.121Z,90.40
2022-12-01T14:21:59.671Z,90.40
2022-12-01T14:24:46.523Z,90.40
2022-12-01T14:27:14.422Z,90.40
2022-12-01T14:29:43.415Z,90.40
2022-12-01T14:32:10.996Z,90.40
2022-12-01T14:34:39.229Z,90.40
2022-12-01T14:37:06.706Z,90.50
2022-12-01T14:39:52.505Z,90.60
2022-12-01T14:42:56.997Z,90.60
2022-12-01T14:45:27.467Z,90.60
2022-12-01T14:48:02.758Z,90.60
2022-12-01T14:50:46.361Z,90.70
2022-12-01T14:53:40.955Z,90.70
2022-12-01T14:56:26.753Z,90.60
2022-12-01T14:59:14.040Z,90.50
2022-12-01T15:01:41.692Z,90.50
2022-12-01T15:04:09.243Z,90.50
2022-12-01T15:06:37.183Z,90.60
2022-12-01T15:12:02.157Z,90.50
2022-12-01T15:14:32.554Z,90.70
2022-12-01T15:17:00.908Z,90.60
2022-12-01T15:19:30.454Z,90.60
2022-12-01T15:21:58.309Z,90.60
2022-12-01T15:24:27.436Z,90.60
2022-12-01T15:27:02.125Z,90.80
2022-12-01T15:29:33.249Z,90.90
2022-12-01T15:32:02.467Z,90.90
2022-12-01T15:34:35.724Z,90.90
2022-12-01T15:37:08.741Z,91.10
2022-12-01T15:39:37.735Z,91.50
2022-12-01T15:42:06.037Z,91.10
2022-12-01T15:44:35.935Z,91.20
2022-12-01T15:47:21.899Z,91.20
2022-12-01T15:49:49.916Z,91.10
2022-12-01T15:52:17.530Z,91.20
2022-12-01T15:54:49.227Z,91.20
2022-12-01T15:57:19.023Z,91.20
2022-12-01T15:59:48.049Z,91.20
2022-12-01T16:02:18.660Z,91.50
2022-12-01T16:04:47.045Z,91.50
2022-12-01T16:07:14.835Z,91.50
2022-12-01T16:09:42.571Z,91.80
2022-12-01T16:12:10.135Z,91.60
2022-12-01T16:14:37.649Z,91.70
2022-12-01T16:17:08.610Z,91.80
2022-12-01T16:19:36.501Z,91.70
2022-12-01T16:22:05.139Z,91.70
2022-12-01T16:24:32.660Z,91.70
2022-12-01T16:27:02.981Z,91.80
2022-12-01T16:29:32.029Z,91.80
2022-12-01T16:32:24.397Z,92.10
2022-12-01T16:34:52.986Z,91.60
2022-12-01T16:37:21.898Z,91.70
2022-12-01T16:39:49.600Z,91.70
2022-12-01T16:42:18.281Z,91.90
2022-12-01T16:44:46.918Z,91.90
2022-12-01T16:47:19.627Z,91.70
2022-12-01T16:49:47.489Z,91.60
2022-12-01T16:52:43.146Z,91.80
2022-12-01T16:55:03.196Z,91.90
2022-12-01T16:57:30.682Z,91.80
2022-12-01T16:59:58.190Z,91.70
2022-12-01T17:02:25.861Z,91.70
2022-12-01T17:04:53.531Z,91.80
2022-12-01T17:07:21.362Z,91.80
2022-12-01T17:09:48.985Z,91.70
2022-12-01T17:12:16.585Z,91.80
2022-12-01T17:14:44.076Z,91.70
2022-12-01T17:17:11.641Z,91.70
2022-12-01T17:19:39.136Z,91.60
2022-12-01T17:22:06.880Z,91.70
2022-12-01T17:24:34.423Z,91.80
2022-12-01T17:27:05.047Z,91.70
2022-12-01T17:29:32.584Z,91.70
2022-12-01T17:32:00.072Z,91.90
2022-12-01T17:34:28.201Z,91.80
2022-12-01T17:36:55.725Z,91.70
2022-12-01T17:39:23.265Z,91.70
2022-12-01T17:41:50.798Z,91.70
2022-12-01T17:44:18.284Z,91.70
2022-12-01T17:46:45.794Z,91.70
2022-12-01T17:49:13.585Z,91.80
2022-12-01T17:51:41.867Z,91.70
2022-12-01T17:54:09.395Z,91.80
2022-12-01T17:56:37.129Z,91.80
2022-12-01T17:59:04.898Z,91.80
2022-12-01T18:01:33.359Z,91.80
2022-12-01T18:04:01.504Z,91.80
2022-12-01T18:06:29.118Z,91.80
2022-12-01T18:08:57.687Z,92.10
2022-12-01T18:11:26.176Z,92.00
2022-12-01T18:13:54.117Z,92.00
2022-12-01T18:16:25.759Z,92.00
2022-12-01T18:18:53.967Z,92.00
2022-12-01T18:21:25.423Z,91.90
2022-12-01T18:23:54.402Z,92.00
2022-12-01T18:26:22.474Z,91.90
2022-12-01T18:28:56.018Z,91.90
2022-12-01T18:31:23.880Z,91.90
2022-12-01T18:33:52.557Z,92.00
2022-12-01T18:36:24.240Z,92.00
2022-12-01T18:38:52.334Z,92.00
2022-12-01T18:41:19.938Z,91.90
2022-12-01T18:43:47.451Z,91.90
2022-12-01T18:46:15.788Z,91.90
2022-12-01T18:48:47.102Z,91.90
2022-12-01T18:51:14.898Z,92.20
2022-12-01T18:53:42.864Z,91.90
2022-12-01T18:56:12.027Z,91.90
2022-12-01T18:58:40.435Z,91.90
2022-12-01T19:01:21.640Z,91.80
2022-12-01T19:03:49.198Z,91.90
2022-12-01T19:06:17.152Z,91.90
2022-12-01T19:08:44.701Z,91.90
2022-12-01T19:11:13.000Z,91.80
2022-12-01T19:13:40.698Z,91.80
2022-12-01T19:16:12.378Z,91.90
2022-12-01T19:18:40.338Z,92.00
2022-12-01T19:21:09.678Z,92.00
2022-12-01T19:23:37.439Z,92.00
2022-12-01T19:26:06.102Z,92.10
2022-12-01T19:28:34.293Z,92.20
2022-12-01T19:31:05.705Z,92.20
2022-12-01T19:33:33.443Z,92.30
2022-12-01T19:36:08.423Z,92.30
2022-12-01T19:38:35.904Z,92.50
2022-12-01T19:41:03.463Z,92.30
2022-12-01T19:43:30.992Z,92.20
2022-12-01T19:45:58.539Z,92.20
2022-12-01T19:48:26.848Z,92.20
2022-12-01T19:50:54.368Z,92.20
2022-12-01T19:53:21.885Z,92.40
2022-12-01T19:55:49.367Z,92.60
2022-12-01T19:58:16.900Z,92.60
2022-12-01T20:00:44.489Z,92.50
2022-12-01T20:03:11.994Z,92.40
2022-12-01T20:05:39.591Z,92.40
2022-12-01T20:08:07.216Z,92.70
2022-12-01T20:10:34.743Z,92.60
2022-12-01T20:13:02.310Z,92.50
2022-12-01T20:15:29.824Z,92.50
2022-12-01T20:17:58.131Z,92.40
2022-12-01T20:20:25.655Z,92.30
2022-12-01T20:22:53.964Z,92.50
2022-12-01T20:25:21.461Z,92.40
2022-12-01T20:27:48.993Z,92.40
2022-12-01T20:30:16.548Z,92.30
2022-12-01T20:32:44.066Z,92.20
2022-12-01T20:35:11.627Z,92.30
2022-12-01T20:37:39.158Z,92.30
2022-12-01T20:40:07.059Z,92.30
2022-12-01T20:42:34.925Z,92.40
2022-12-01T20:45:02.782Z,92.30
2022-12-01T20:47:30.927Z,92.30
2022-12-01T20:49:58.640Z,92.30
2022-12-01T20:52:26.157Z,92.30
2022-12-01T20:54:53.689Z,92.30
2022-12-01T20:57:21.362Z,92.30
2022-12-01T20:59:48.863Z,92.30
2022-12-01T21:02:16.777Z,92.30
2022-12-01T21:04:44.417Z,92.30
2022-12-01T21:07:11.909Z,92.20
2022-12-01T21:09:39.658Z,92.20
2022-12-01T21:12:31.239Z,92.20
2022-12-01T21:15:16.964Z,92.20
2022-12-01T21:17:46.893Z,92.30
2022-12-01T21:20:18.297Z,92.20
2022-12-01T21:22:46.332Z,92.20
2022-12-01T21:25:19.033Z,92.20
2022-12-01T21:27:47.561Z,92.20
2022-12-01T21:30:28.777Z,92.20
2022-12-01T21:33:00.907Z,92.20
2022-12-01T21:35:28.402Z,92.20
2022-12-01T21:38:00.737Z,92.20
2022-12-01T21:40:28.737Z,92.20
2022-12-01T21:42:57.189Z,92.20
2022-12-01T21:45:34.758Z,92.20
2022-12-01T21:48:11.497Z,92.20
2022-12-01T21:50:38.979Z,92.10
2022-12-01T21:53:13.349Z,92.10
2022-12-01T21:55:42.147Z,92.10
2022-12-01T21:58:35.790Z,92.00
2022-12-01T22:01:08.467Z,92.10
2022-12-01T22:03:42.918Z,92.10
2022-12-01T22:09:03.300Z,92.10
2022-12-01T22:11:31.528Z,92.10
2022-12-01T22:14:11.406Z,92.10
2022-12-01T22:16:41.661Z,92.10
2022-12-01T22:19:29.293Z,92.10
2022-12-01T22:22:22.945Z,92.00
2022-12-01T22:24:54.680Z,92.00
2022-12-01T22:27:31.202Z,92.00
2022-12-01T22:30:00.619Z,92.10
2022-12-01T22:32:34.210Z,92.00
2022-12-01T22:35:20.044Z,92.00
2022-12-01T22:38:10.604Z,92.00
2022-12-01T22:40:51.623Z,92.00
2022-12-01T22:43:21.836Z,91.90
2022-12-01T22:46:01.432Z,91.90
2022-12-01T22:48:28.963Z,91.90
2022-12-01T22:50:58.519Z,91.80
2022-12-01T22:53:30.807Z,91.80
2022-12-01T22:56:00.594Z,91.80
2022-12-01T22:58:28.113Z,91.70
2022-12-01T23:00:57.929Z,91.70
2022-12-01T23:03:26.641Z,91.50
2022-12-01T23:05:56.098Z,91.60
2022-12-01T23:08:24.297Z,91.50
2022-12-01T23:10:52.028Z,91.50
2022-12-01T23:13:21.217Z,91.60
2022-12-01T23:15:50.859Z,91.50
2022-12-01T23:18:18.366Z,91.60
2022-12-01T23:20:53.906Z,91.60
2022-12-01T23:23:26.080Z,91.60
2022-12-01T23:25:53.654Z,91.50
2022-12-01T23:28:21.662Z,91.60
2022-12-01T23:30:51.674Z,91.50
2022-12-01T23:33:20.657Z,91.70
2022-12-01T23:35:51.281Z,91.60
2022-12-01T23:38:20.241Z,91.50
2022-12-01T23:40:47.966Z,91.50
2022-12-01T23:43:27.520Z,91.70
2022-12-01T23:46:07.824Z,91.60
2022-12-01T23:48:38.892Z,91.70
2022-12-01T23:51:10.666Z,91.60
2022-12-01T23:53:39.678Z,91.60
2022-12-01T23:56:10.618Z,91.70
2022-12-01T23:58:38.129Z,91.50
